sensor_id;sensor_type;location;lat;lon;timestamp;P1;durP1;ratioP1;P2;durP2;ratioP2
11767;SDS011;5941;57.652;12.514;2024-01-27T00:01:56;501.67;;;479.70;;
11767;SDS011;5941;57.652;12.514;2024-01-27T00:04:22;513.33;;;490.90;;
11767;SDS011;5941;57.652;12.514;2024-01-27T00:06:48;574.47;;;548.97;;
11767;SDS011;5941;57.652;12.514;2024-01-27T00:09:14;534.47;;;510.90;;
11767;SDS011;5941;57.652;12.514;2024-01-27T00:11:40;524.63;;;501.73;;
11767;SDS011;5941;57.652;12.514;2024-01-27T00:14:06;580.00;;;553.50;;
11767;SDS011;5941;57.652;12.514;2024-01-27T00:16:32;573.77;;;547.77;;
11767;SDS011;5941;57.652;12.514;2024-01-27T00:18:58;546.00;;;521.83;;
11767;SDS011;5941;57.652;12.514;2024-01-27T00:21:24;530.00;;;507.03;;
11767;SDS011;5941;57.652;12.514;2024-01-27T00:23:50;544.70;;;520.63;;
11767;SDS011;5941;57.652;12.514;2024-01-27T00:26:16;524.60;;;502.10;;
11767;SDS011;5941;57.652;12.514;2024-01-27T00:28:42;541.57;;;518.30;;
11767;SDS011;5941;57.652;12.514;2024-01-27T00:31:08;556.67;;;531.17;;
11767;SDS011;5941;57.652;12.514;2024-01-27T00:33:34;562.30;;;537.27;;
11767;SDS011;5941;57.652;12.514;2024-01-27T00:36:01;556.57;;;531.87;;
11767;SDS011;5941;57.652;12.514;2024-01-27T00:38:27;556.87;;;531.67;;
11767;SDS011;5941;57.652;12.514;2024-01-27T00:40:53;528.70;;;505.60;;
11767;SDS011;5941;57.652;12.514;2024-01-27T00:43:19;546.93;;;522.63;;
11767;SDS011;5941;57.652;12.514;2024-01-27T00:45:45;576.30;;;550.57;;
11767;SDS011;5941;57.652;12.514;2024-01-27T00:48:11;555.20;;;530.20;;
11767;SDS011;5941;57.652;12.514;2024-01-27T00:50:37;533.80;;;509.93;;
11767;SDS011;5941;57.652;12.514;2024-01-27T00:53:03;555.03;;;529.83;;
11767;SDS011;5941;57.652;12.514;2024-01-27T00:55:29;561.60;;;536.00;;
11767;SDS011;5941;57.652;12.514;2024-01-27T00:57:55;568.47;;;543.10;;
11767;SDS011;5941;57.652;12.514;2024-01-27T01:00:21;553.83;;;528.97;;
11767;SDS011;5941;57.652;12.514;2024-01-27T01:02:47;518.97;;;496.40;;
11767;SDS011;5941;57.652;12.514;2024-01-27T01:05:13;529.33;;;506.07;;
11767;SDS011;5941;57.652;12.514;2024-01-27T01:07:39;565.10;;;538.97;;
11767;SDS011;5941;57.652;12.514;2024-01-27T01:10:05;564.17;;;538.63;;
11767;SDS011;5941;57.652;12.514;2024-01-27T01:12:31;594.57;;;567.20;;
11767;SDS011;5941;57.652;12.514;2024-01-27T01:14:58;539.57;;;515.83;;
11767;SDS011;5941;57.652;12.514;2024-01-27T01:17:24;568.37;;;542.10;;
11767;SDS011;5941;57.652;12.514;2024-01-27T01:19:49;544.20;;;519.77;;
11767;SDS011;5941;57.652;12.514;2024-01-27T01:22:15;569.40;;;543.23;;
11767;SDS011;5941;57.652;12.514;2024-01-27T01:24:41;568.47;;;542.70;;
11767;SDS011;5941;57.652;12.514;2024-01-27T01:27:07;572.30;;;546.67;;
11767;SDS011;5941;57.652;12.514;2024-01-27T01:29:33;558.80;;;533.63;;
11767;SDS011;5941;57.652;12.514;2024-01-27T01:32:00;568.43;;;541.83;;
11767;SDS011;5941;57.652;12.514;2024-01-27T01:34:28;581.80;;;555.37;;
11767;SDS011;5941;57.652;12.514;2024-01-27T01:36:54;573.20;;;546.87;;
11767;SDS011;5941;57.652;12.514;2024-01-27T01:39:19;547.63;;;523.17;;
11767;SDS011;5941;57.652;12.514;2024-01-27T01:41:45;523.47;;;500.77;;
11767;SDS011;5941;57.652;12.514;2024-01-27T01:44:11;549.73;;;525.10;;
11767;SDS011;5941;57.652;12.514;2024-01-27T01:46:37;511.63;;;488.87;;
11767;SDS011;5941;57.652;12.514;2024-01-27T01:49:04;525.87;;;502.53;;
11767;SDS011;5941;57.652;12.514;2024-01-27T01:51:30;550.77;;;526.33;;
11767;SDS011;5941;57.652;12.514;2024-01-27T01:53:57;568.33;;;542.20;;
11767;SDS011;5941;57.652;12.514;2024-01-27T01:56:24;518.93;;;496.37;;
11767;SDS011;5941;57.652;12.514;2024-01-27T01:58:50;530.70;;;507.30;;
11767;SDS011;5941;57.652;12.514;2024-01-27T02:01:19;500.90;;;479.50;;
11767;SDS011;5941;57.652;12.514;2024-01-27T02:03:55;500.03;;;478.47;;
11767;SDS011;5941;57.652;12.514;2024-01-27T02:06:21;540.63;;;516.27;;
11767;SDS011;5941;57.652;12.514;2024-01-27T02:08:47;491.30;;;470.30;;
11767;SDS011;5941;57.652;12.514;2024-01-27T02:11:14;500.70;;;478.57;;
11767;SDS011;5941;57.652;12.514;2024-01-27T02:13:40;493.43;;;472.33;;
11767;SDS011;5941;57.652;12.514;2024-01-27T02:16:06;507.90;;;486.47;;
11767;SDS011;5941;57.652;12.514;2024-01-27T02:18:32;513.70;;;490.90;;
11767;SDS011;5941;57.652;12.514;2024-01-27T02:20:58;531.40;;;507.87;;
11767;SDS011;5941;57.652;12.514;2024-01-27T02:23:24;500.00;;;478.37;;
11767;SDS011;5941;57.652;12.514;2024-01-27T02:25:50;530.87;;;507.07;;
11767;SDS011;5941;57.652;12.514;2024-01-27T02:28:16;482.10;;;461.20;;
11767;SDS011;5941;57.652;12.514;2024-01-27T02:30:43;463.80;;;444.03;;
11767;SDS011;5941;57.652;12.514;2024-01-27T02:33:09;505.40;;;483.47;;
11767;SDS011;5941;57.652;12.514;2024-01-27T02:35:35;498.37;;;476.97;;
11767;SDS011;5941;57.652;12.514;2024-01-27T02:38:01;508.67;;;486.63;;
11767;SDS011;5941;57.652;12.514;2024-01-27T02:40:27;493.37;;;472.40;;
11767;SDS011;5941;57.652;12.514;2024-01-27T02:42:53;495.83;;;474.03;;
11767;SDS011;5941;57.652;12.514;2024-01-27T02:45:19;500.53;;;478.73;;
11767;SDS011;5941;57.652;12.514;2024-01-27T02:47:45;494.67;;;473.53;;
11767;SDS011;5941;57.652;12.514;2024-01-27T02:50:11;494.07;;;472.73;;
11767;SDS011;5941;57.652;12.514;2024-01-27T02:52:37;562.57;;;537.17;;
11767;SDS011;5941;57.652;12.514;2024-01-27T02:55:03;537.93;;;513.87;;
11767;SDS011;5941;57.652;12.514;2024-01-27T02:57:29;498.00;;;476.73;;
11767;SDS011;5941;57.652;12.514;2024-01-27T02:59:55;493.63;;;472.10;;
11767;SDS011;5941;57.652;12.514;2024-01-27T03:02:21;499.17;;;477.17;;
11767;SDS011;5941;57.652;12.514;2024-01-27T03:04:47;512.43;;;489.97;;
11767;SDS011;5941;57.652;12.514;2024-01-27T03:07:13;502.90;;;480.67;;
11767;SDS011;5941;57.652;12.514;2024-01-27T03:09:39;516.00;;;493.30;;
11767;SDS011;5941;57.652;12.514;2024-01-27T03:12:05;475.83;;;455.67;;
11767;SDS011;5941;57.652;12.514;2024-01-27T03:14:31;446.33;;;427.37;;
11767;SDS011;5941;57.652;12.514;2024-01-27T03:16:57;453.43;;;434.20;;
11767;SDS011;5941;57.652;12.514;2024-01-27T03:19:23;453.30;;;433.90;;
11767;SDS011;5941;57.652;12.514;2024-01-27T03:21:49;510.33;;;488.10;;
11767;SDS011;5941;57.652;12.514;2024-01-27T03:24:15;519.97;;;497.03;;
11767;SDS011;5941;57.652;12.514;2024-01-27T03:26:41;490.13;;;468.67;;
11767;SDS011;5941;57.652;12.514;2024-01-27T03:29:07;477.90;;;457.10;;
11767;SDS011;5941;57.652;12.514;2024-01-27T03:31:33;497.53;;;476.10;;
11767;SDS011;5941;57.652;12.514;2024-01-27T03:34:00;501.33;;;479.67;;
11767;SDS011;5941;57.652;12.514;2024-01-27T03:36:26;476.93;;;456.70;;
11767;SDS011;5941;57.652;12.514;2024-01-27T03:38:52;486.23;;;464.97;;
11767;SDS011;5941;57.652;12.514;2024-01-27T03:41:19;507.13;;;485.33;;
11767;SDS011;5941;57.652;12.514;2024-01-27T03:43:45;467.17;;;447.63;;
11767;SDS011;5941;57.652;12.514;2024-01-27T03:46:11;495.37;;;473.73;;
11767;SDS011;5941;57.652;12.514;2024-01-27T03:48:37;575.50;;;549.57;;
11767;SDS011;5941;57.652;12.514;2024-01-27T03:51:03;564.00;;;537.97;;
11767;SDS011;5941;57.652;12.514;2024-01-27T03:53:29;521.87;;;499.30;;
11767;SDS011;5941;57.652;12.514;2024-01-27T03:55:55;518.43;;;495.60;;
11767;SDS011;5941;57.652;12.514;2024-01-27T03:58:27;535.73;;;511.87;;
11767;SDS011;5941;57.652;12.514;2024-01-27T04:00:53;552.43;;;527.47;;
11767;SDS011;5941;57.652;12.514;2024-01-27T04:03:19;569.50;;;543.03;;
11767;SDS011;5941;57.652;12.514;2024-01-27T04:05:45;636.60;;;605.33;;
11767;SDS011;5941;57.652;12.514;2024-01-27T04:08:11;640.43;;;609.87;;
11767;SDS011;5941;57.652;12.514;2024-01-27T04:10:37;624.30;;;595.07;;
11767;SDS011;5941;57.652;12.514;2024-01-27T04:13:03;582.97;;;556.20;;
11767;SDS011;5941;57.652;12.514;2024-01-27T04:15:29;565.70;;;540.13;;
11767;SDS011;5941;57.652;12.514;2024-01-27T04:17:55;646.23;;;615.13;;
11767;SDS011;5941;57.652;12.514;2024-01-27T04:20:21;685.43;;;650.80;;
11767;SDS011;5941;57.652;12.514;2024-01-27T04:22:47;613.87;;;584.93;;
11767;SDS011;5941;57.652;12.514;2024-01-27T04:25:13;595.40;;;567.67;;
11767;SDS011;5941;57.652;12.514;2024-01-27T04:27:40;582.67;;;555.47;;
11767;SDS011;5941;57.652;12.514;2024-01-27T04:30:07;630.20;;;598.97;;
11767;SDS011;5941;57.652;12.514;2024-01-27T04:32:34;565.77;;;540.57;;
11767;SDS011;5941;57.652;12.514;2024-01-27T04:35:01;528.27;;;504.37;;
11767;SDS011;5941;57.652;12.514;2024-01-27T04:37:28;525.20;;;502.03;;
11767;SDS011;5941;57.652;12.514;2024-01-27T04:39:54;505.03;;;482.93;;
11767;SDS011;5941;57.652;12.514;2024-01-27T04:42:20;615.30;;;585.27;;
11767;SDS011;5941;57.652;12.514;2024-01-27T04:44:46;665.00;;;632.10;;
11767;SDS011;5941;57.652;12.514;2024-01-27T04:47:12;617.60;;;588.13;;
11767;SDS011;5941;57.652;12.514;2024-01-27T04:49:38;574.13;;;547.53;;
11767;SDS011;5941;57.652;12.514;2024-01-27T04:52:04;578.07;;;551.57;;
11767;SDS011;5941;57.652;12.514;2024-01-27T04:54:30;602.97;;;574.73;;
11767;SDS011;5941;57.652;12.514;2024-01-27T04:56:56;592.70;;;564.97;;
11767;SDS011;5941;57.652;12.514;2024-01-27T04:59:22;553.90;;;528.77;;
11767;SDS011;5941;57.652;12.514;2024-01-27T05:01:49;489.93;;;468.80;;
11767;SDS011;5941;57.652;12.514;2024-01-27T05:04:16;503.43;;;481.37;;
11767;SDS011;5941;57.652;12.514;2024-01-27T05:06:45;490.00;;;468.50;;
11767;SDS011;5941;57.652;12.514;2024-01-27T05:09:10;470.43;;;449.97;;
11767;SDS011;5941;57.652;12.514;2024-01-27T05:11:37;452.33;;;433.23;;
11767;SDS011;5941;57.652;12.514;2024-01-27T05:14:03;418.80;;;401.47;;
11767;SDS011;5941;57.652;12.514;2024-01-27T05:16:29;516.40;;;493.43;;
11767;SDS011;5941;57.652;12.514;2024-01-27T05:18:56;458.13;;;438.93;;
11767;SDS011;5941;57.652;12.514;2024-01-27T05:21:22;476.33;;;455.60;;
11767;SDS011;5941;57.652;12.514;2024-01-27T05:23:48;541.00;;;516.97;;
11767;SDS011;5941;57.652;12.514;2024-01-27T05:26:14;496.73;;;475.23;;
11767;SDS011;5941;57.652;12.514;2024-01-27T05:28:40;540.57;;;515.90;;
11767;SDS011;5941;57.652;12.514;2024-01-27T05:31:06;597.70;;;570.17;;
11767;SDS011;5941;57.652;12.514;2024-01-27T05:33:33;559.63;;;533.80;;
11767;SDS011;5941;57.652;12.514;2024-01-27T05:35:59;587.93;;;560.30;;
11767;SDS011;5941;57.652;12.514;2024-01-27T05:38:25;641.70;;;610.80;;
11767;SDS011;5941;57.652;12.514;2024-01-27T05:40:53;589.53;;;561.83;;
11767;SDS011;5941;57.652;12.514;2024-01-27T05:43:19;617.00;;;587.67;;
11767;SDS011;5941;57.652;12.514;2024-01-27T05:45:45;651.13;;;618.17;;
11767;SDS011;5941;57.652;12.514;2024-01-27T05:48:11;595.07;;;567.43;;
11767;SDS011;5941;57.652;12.514;2024-01-27T05:50:39;548.53;;;524.13;;
11767;SDS011;5941;57.652;12.514;2024-01-27T05:53:05;584.73;;;557.23;;
11767;SDS011;5941;57.652;12.514;2024-01-27T05:55:31;603.37;;;575.37;;
11767;SDS011;5941;57.652;12.514;2024-01-27T05:57:58;609.37;;;580.53;;
11767;SDS011;5941;57.652;12.514;2024-01-27T06:00:24;596.97;;;569.63;;
11767;SDS011;5941;57.652;12.514;2024-01-27T06:02:50;537.47;;;513.70;;
11767;SDS011;5941;57.652;12.514;2024-01-27T06:05:16;484.27;;;463.67;;
11767;SDS011;5941;57.652;12.514;2024-01-27T06:07:42;446.23;;;427.67;;
11767;SDS011;5941;57.652;12.514;2024-01-27T06:10:10;458.13;;;438.53;;
11767;SDS011;5941;57.652;12.514;2024-01-27T06:12:37;430.20;;;412.03;;
11767;SDS011;5941;57.652;12.514;2024-01-27T06:15:04;404.57;;;387.50;;
11767;SDS011;5941;57.652;12.514;2024-01-27T06:17:31;372.93;;;357.70;;
11767;SDS011;5941;57.652;12.514;2024-01-27T06:19:57;423.87;;;405.93;;
11767;SDS011;5941;57.652;12.514;2024-01-27T06:22:23;400.17;;;383.53;;
11767;SDS011;5941;57.652;12.514;2024-01-27T06:24:49;441.53;;;422.90;;
11767;SDS011;5941;57.652;12.514;2024-01-27T06:27:15;420.03;;;402.67;;
11767;SDS011;5941;57.652;12.514;2024-01-27T06:29:42;401.70;;;385.03;;
11767;SDS011;5941;57.652;12.514;2024-01-27T06:32:09;571.50;;;544.77;;
11767;SDS011;5941;57.652;12.514;2024-01-27T06:34:35;559.80;;;533.67;;
11767;SDS011;5941;57.652;12.514;2024-01-27T06:37:00;577.53;;;550.80;;
11767;SDS011;5941;57.652;12.514;2024-01-27T06:39:26;623.37;;;593.67;;
11767;SDS011;5941;57.652;12.514;2024-01-27T06:41:54;598.47;;;569.97;;
11767;SDS011;5941;57.652;12.514;2024-01-27T06:44:20;693.50;;;658.07;;
11767;SDS011;5941;57.652;12.514;2024-01-27T06:46:46;693.57;;;657.57;;
11767;SDS011;5941;57.652;12.514;2024-01-27T06:49:14;720.73;;;683.73;;
11767;SDS011;5941;57.652;12.514;2024-01-27T06:51:41;520.30;;;497.80;;
11767;SDS011;5941;57.652;12.514;2024-01-27T06:54:07;529.67;;;506.40;;
11767;SDS011;5941;57.652;12.514;2024-01-27T06:56:33;584.13;;;557.50;;
11767;SDS011;5941;57.652;12.514;2024-01-27T06:58:59;604.73;;;576.20;;
11767;SDS011;5941;57.652;12.514;2024-01-27T07:01:25;584.87;;;557.90;;
11767;SDS011;5941;57.652;12.514;2024-01-27T07:03:51;570.50;;;544.23;;
11767;SDS011;5941;57.652;12.514;2024-01-27T07:06:17;551.40;;;526.37;;
11767;SDS011;5941;57.652;12.514;2024-01-27T07:08:43;591.87;;;564.37;;
11767;SDS011;5941;57.652;12.514;2024-01-27T07:11:09;523.63;;;500.77;;
11767;SDS011;5941;57.652;12.514;2024-01-27T07:13:35;522.20;;;499.03;;
11767;SDS011;5941;57.652;12.514;2024-01-27T07:16:01;564.90;;;537.90;;
11767;SDS011;5941;57.652;12.514;2024-01-27T07:18:27;614.00;;;584.33;;
11767;SDS011;5941;57.652;12.514;2024-01-27T07:20:54;607.50;;;578.53;;
11767;SDS011;5941;57.652;12.514;2024-01-27T07:23:20;513.60;;;490.87;;
11767;SDS011;5941;57.652;12.514;2024-01-27T07:25:46;415.70;;;398.30;;
11767;SDS011;5941;57.652;12.514;2024-01-27T07:28:12;351.80;;;337.80;;
11767;SDS011;5941;57.652;12.514;2024-01-27T07:30:40;382.57;;;367.00;;
11767;SDS011;5941;57.652;12.514;2024-01-27T07:33:06;409.63;;;392.73;;
11767;SDS011;5941;57.652;12.514;2024-01-27T07:35:32;512.47;;;489.17;;
11767;SDS011;5941;57.652;12.514;2024-01-27T07:37:59;659.20;;;626.90;;
11767;SDS011;5941;57.652;12.514;2024-01-27T07:40:25;663.63;;;631.17;;
11767;SDS011;5941;57.652;12.514;2024-01-27T07:42:51;718.83;;;680.97;;
11767;SDS011;5941;57.652;12.514;2024-01-27T07:45:17;702.83;;;665.67;;
11767;SDS011;5941;57.652;12.514;2024-01-27T07:47:43;733.20;;;694.03;;
11767;SDS011;5941;57.652;12.514;2024-01-27T07:50:09;742.83;;;703.20;;
11767;SDS011;5941;57.652;12.514;2024-01-27T07:52:35;798.50;;;752.70;;
11767;SDS011;5941;57.652;12.514;2024-01-27T07:55:01;736.50;;;696.83;;
11767;SDS011;5941;57.652;12.514;2024-01-27T07:57:28;596.53;;;567.77;;
11767;SDS011;5941;57.652;12.514;2024-01-27T07:59:54;547.53;;;522.10;;
11767;SDS011;5941;57.652;12.514;2024-01-27T08:02:19;569.27;;;542.70;;
11767;SDS011;5941;57.652;12.514;2024-01-27T08:04:46;562.40;;;536.93;;
11767;SDS011;5941;57.652;12.514;2024-01-27T08:07:12;615.83;;;586.67;;
11767;SDS011;5941;57.652;12.514;2024-01-27T08:09:39;682.93;;;647.77;;
11767;SDS011;5941;57.652;12.514;2024-01-27T08:12:06;702.33;;;665.73;;
11767;SDS011;5941;57.652;12.514;2024-01-27T08:14:32;683.80;;;648.23;;
11767;SDS011;5941;57.652;12.514;2024-01-27T08:16:58;659.20;;;626.60;;
11767;SDS011;5941;57.652;12.514;2024-01-27T08:19:24;672.23;;;638.17;;
11767;SDS011;5941;57.652;12.514;2024-01-27T08:21:51;727.37;;;689.63;;
11767;SDS011;5941;57.652;12.514;2024-01-27T08:24:17;688.37;;;652.80;;
11767;SDS011;5941;57.652;12.514;2024-01-27T08:26:43;676.67;;;643.10;;
11767;SDS011;5941;57.652;12.514;2024-01-27T08:29:09;746.30;;;707.17;;
11767;SDS011;5941;57.652;12.514;2024-01-27T08:31:35;741.03;;;702.47;;
11767;SDS011;5941;57.652;12.514;2024-01-27T08:34:05;751.90;;;711.03;;
11767;SDS011;5941;57.652;12.514;2024-01-27T08:36:30;751.23;;;708.60;;
11767;SDS011;5941;57.652;12.514;2024-01-27T08:38:58;1999.90;;;999.90;;
11767;SDS011;5941;57.652;12.514;2024-01-27T08:41:24;1999.90;;;999.90;;
11767;SDS011;5941;57.652;12.514;2024-01-27T08:43:51;1999.90;;;999.90;;
11767;SDS011;5941;57.652;12.514;2024-01-27T08:46:16;1999.90;;;999.90;;
11767;SDS011;5941;57.652;12.514;2024-01-27T08:48:44;1999.90;;;999.90;;
11767;SDS011;5941;57.652;12.514;2024-01-27T08:51:10;1999.90;;;999.90;;
11767;SDS011;5941;57.652;12.514;2024-01-27T08:53:37;1999.90;;;999.90;;
11767;SDS011;5941;57.652;12.514;2024-01-27T08:56:03;1999.90;;;999.90;;
11767;SDS011;5941;57.652;12.514;2024-01-27T08:58:30;1999.90;;;999.90;;
11767;SDS011;5941;57.652;12.514;2024-01-27T09:00:56;1999.90;;;999.90;;
11767;SDS011;5941;57.652;12.514;2024-01-27T09:03:22;1999.90;;;999.90;;
11767;SDS011;5941;57.652;12.514;2024-01-27T09:05:48;1999.90;;;999.90;;
11767;SDS011;5941;57.652;12.514;2024-01-27T09:08:15;1999.90;;;999.90;;
11767;SDS011;5941;57.652;12.514;2024-01-27T09:10:42;1999.90;;;999.90;;
11767;SDS011;5941;57.652;12.514;2024-01-27T09:13:08;1999.90;;;999.90;;
11767;SDS011;5941;57.652;12.514;2024-01-27T09:15:34;1999.90;;;999.90;;
11767;SDS011;5941;57.652;12.514;2024-01-27T09:18:00;1999.90;;;999.90;;
11767;SDS011;5941;57.652;12.514;2024-01-27T09:20:25;1999.90;;;999.90;;
11767;SDS011;5941;57.652;12.514;2024-01-27T09:22:51;1999.90;;;999.90;;
11767;SDS011;5941;57.652;12.514;2024-01-27T09:25:17;1999.90;;;999.90;;
11767;SDS011;5941;57.652;12.514;2024-01-27T09:27:43;1999.90;;;999.90;;
11767;SDS011;5941;57.652;12.514;2024-01-27T09:30:10;1999.90;;;999.90;;
11767;SDS011;5941;57.652;12.514;2024-01-27T09:32:36;1999.90;;;999.90;;
11767;SDS011;5941;57.652;12.514;2024-01-27T09:35:02;1999.90;;;999.90;;
11767;SDS011;5941;57.652;12.514;2024-01-27T09:37:28;1999.90;;;999.90;;
11767;SDS011;5941;57.652;12.514;2024-01-27T09:39:54;1999.90;;;999.90;;
11767;SDS011;5941;57.652;12.514;2024-01-27T09:42:20;1999.90;;;999.90;;
11767;SDS011;5941;57.652;12.514;2024-01-27T09:44:48;1999.90;;;999.90;;
11767;SDS011;5941;57.652;12.514;2024-01-27T09:47:14;1999.90;;;999.90;;
11767;SDS011;5941;57.652;12.514;2024-01-27T09:49:40;1999.90;;;999.90;;
11767;SDS011;5941;57.652;12.514;2024-01-27T09:52:07;1999.90;;;999.90;;
11767;SDS011;5941;57.652;12.514;2024-01-27T09:54:34;1999.90;;;999.90;;
11767;SDS011;5941;57.652;12.514;2024-01-27T09:57:00;1999.90;;;999.90;;
11767;SDS011;5941;57.652;12.514;2024-01-27T09:59:27;1999.90;;;999.90;;
11767;SDS011;5941;57.652;12.514;2024-01-27T10:01:53;1999.90;;;999.90;;
11767;SDS011;5941;57.652;12.514;2024-01-27T10:04:19;1999.90;;;999.90;;
11767;SDS011;5941;57.652;12.514;2024-01-27T10:06:46;1999.90;;;999.90;;
11767;SDS011;5941;57.652;12.514;2024-01-27T10:09:13;1999.90;;;999.90;;
11767;SDS011;5941;57.652;12.514;2024-01-27T10:11:39;1999.90;;;999.90;;
11767;SDS011;5941;57.652;12.514;2024-01-27T10:14:08;1999.90;;;999.90;;
11767;SDS011;5941;57.652;12.514;2024-01-27T10:16:41;1999.90;;;999.90;;
11767;SDS011;5941;57.652;12.514;2024-01-27T10:19:08;1999.90;;;999.90;;
11767;SDS011;5941;57.652;12.514;2024-01-27T10:21:37;1999.90;;;999.90;;
11767;SDS011;5941;57.652;12.514;2024-01-27T10:24:04;1999.90;;;999.90;;
11767;SDS011;5941;57.652;12.514;2024-01-27T10:26:31;1999.90;;;999.90;;
11767;SDS011;5941;57.652;12.514;2024-01-27T10:28:58;1999.90;;;999.90;;
11767;SDS011;5941;57.652;12.514;2024-01-27T10:31:27;1999.90;;;999.90;;
11767;SDS011;5941;57.652;12.514;2024-01-27T10:33:56;1999.90;;;999.90;;
11767;SDS011;5941;57.652;12.514;2024-01-27T10:36:22;1999.90;;;999.90;;
11767;SDS011;5941;57.652;12.514;2024-01-27T10:38:48;1999.90;;;999.90;;
11767;SDS011;5941;57.652;12.514;2024-01-27T10:41:23;1999.90;;;999.90;;
11767;SDS011;5941;57.652;12.514;2024-01-27T10:43:51;1999.90;;;999.90;;
11767;SDS011;5941;57.652;12.514;2024-01-27T10:46:18;1999.90;;;999.90;;
11767;SDS011;5941;57.652;12.514;2024-01-27T10:48:48;1999.90;;;999.90;;
11767;SDS011;5941;57.652;12.514;2024-01-27T10:51:15;1999.90;;;999.90;;
11767;SDS011;5941;57.652;12.514;2024-01-27T10:53:42;1999.90;;;999.90;;
11767;SDS011;5941;57.652;12.514;2024-01-27T10:56:11;1999.90;;;999.90;;
11767;SDS011;5941;57.652;12.514;2024-01-27T10:58:37;1999.90;;;999.90;;
11767;SDS011;5941;57.652;12.514;2024-01-27T11:01:07;1999.90;;;999.90;;
11767;SDS011;5941;57.652;12.514;2024-01-27T11:03:36;1999.90;;;999.90;;
11767;SDS011;5941;57.652;12.514;2024-01-27T11:06:04;1999.90;;;999.90;;
11767;SDS011;5941;57.652;12.514;2024-01-27T11:08:30;1999.90;;;999.90;;
11767;SDS011;5941;57.652;12.514;2024-01-27T11:10:56;1999.90;;;999.90;;
11767;SDS011;5941;57.652;12.514;2024-01-27T11:13:23;1999.90;;;999.90;;
11767;SDS011;5941;57.652;12.514;2024-01-27T11:15:51;1999.90;;;999.90;;
11767;SDS011;5941;57.652;12.514;2024-01-27T11:18:17;1999.90;;;999.90;;
11767;SDS011;5941;57.652;12.514;2024-01-27T11:20:44;1999.90;;;999.90;;
11767;SDS011;5941;57.652;12.514;2024-01-27T11:23:10;1999.90;;;999.90;;
11767;SDS011;5941;57.652;12.514;2024-01-27T11:25:36;1999.90;;;999.90;;
11767;SDS011;5941;57.652;12.514;2024-01-27T11:28:10;1999.90;;;999.90;;
11767;SDS011;5941;57.652;12.514;2024-01-27T11:30:37;1999.90;;;999.90;;
11767;SDS011;5941;57.652;12.514;2024-01-27T11:33:05;1999.90;;;999.90;;
11767;SDS011;5941;57.652;12.514;2024-01-27T11:35:31;1999.90;;;999.90;;
11767;SDS011;5941;57.652;12.514;2024-01-27T11:37:57;1999.90;;;999.90;;
11767;SDS011;5941;57.652;12.514;2024-01-27T11:40:23;1999.90;;;999.90;;
11767;SDS011;5941;57.652;12.514;2024-01-27T11:45:21;1999.90;;;999.90;;
11767;SDS011;5941;57.652;12.514;2024-01-27T11:47:47;1999.90;;;999.90;;
11767;SDS011;5941;57.652;12.514;2024-01-27T11:50:14;1999.90;;;999.90;;
11767;SDS011;5941;57.652;12.514;2024-01-27T11:52:42;1999.90;;;999.90;;
11767;SDS011;5941;57.652;12.514;2024-01-27T11:55:08;1999.90;;;999.90;;
11767;SDS011;5941;57.652;12.514;2024-01-27T11:57:34;1999.90;;;999.90;;
11767;SDS011;5941;57.652;12.514;2024-01-27T12:00:00;1999.90;;;999.90;;
11767;SDS011;5941;57.652;12.514;2024-01-27T12:02:26;1999.90;;;999.90;;
11767;SDS011;5941;57.652;12.514;2024-01-27T12:04:52;1999.90;;;999.90;;
11767;SDS011;5941;57.652;12.514;2024-01-27T12:07:19;1999.90;;;999.90;;
11767;SDS011;5941;57.652;12.514;2024-01-27T12:09:45;1999.90;;;999.90;;
11767;SDS011;5941;57.652;12.514;2024-01-27T12:12:12;1999.90;;;999.90;;
11767;SDS011;5941;57.652;12.514;2024-01-27T12:14:50;1999.90;;;999.90;;
11767;SDS011;5941;57.652;12.514;2024-01-27T12:17:17;1999.90;;;999.90;;
11767;SDS011;5941;57.652;12.514;2024-01-27T12:19:47;1999.90;;;999.90;;
11767;SDS011;5941;57.652;12.514;2024-01-27T12:22:26;1999.90;;;999.90;;
11767;SDS011;5941;57.652;12.514;2024-01-27T12:24:52;1999.90;;;999.90;;
11767;SDS011;5941;57.652;12.514;2024-01-27T12:27:18;1999.90;;;999.90;;
11767;SDS011;5941;57.652;12.514;2024-01-27T12:29:47;1999.90;;;999.90;;
11767;SDS011;5941;57.652;12.514;2024-01-27T12:32:14;1999.90;;;999.90;;
11767;SDS011;5941;57.652;12.514;2024-01-27T12:34:40;1999.90;;;999.90;;
11767;SDS011;5941;57.652;12.514;2024-01-27T12:37:07;1999.90;;;999.90;;
11767;SDS011;5941;57.652;12.514;2024-01-27T12:39:33;1999.90;;;999.90;;
11767;SDS011;5941;57.652;12.514;2024-01-27T12:41:59;1999.90;;;999.90;;
11767;SDS011;5941;57.652;12.514;2024-01-27T12:44:25;1999.90;;;999.90;;
11767;SDS011;5941;57.652;12.514;2024-01-27T12:46:51;1999.90;;;999.90;;
11767;SDS011;5941;57.652;12.514;2024-01-27T12:49:17;1999.90;;;999.90;;
11767;SDS011;5941;57.652;12.514;2024-01-27T12:51:44;1999.90;;;999.90;;
11767;SDS011;5941;57.652;12.514;2024-01-27T12:54:10;1999.90;;;999.90;;
11767;SDS011;5941;57.652;12.514;2024-01-27T12:56:37;1999.90;;;999.90;;
11767;SDS011;5941;57.652;12.514;2024-01-27T12:59:03;1999.90;;;999.90;;
11767;SDS011;5941;57.652;12.514;2024-01-27T13:01:30;1999.90;;;999.90;;
11767;SDS011;5941;57.652;12.514;2024-01-27T13:03:56;1999.90;;;999.90;;
11767;SDS011;5941;57.652;12.514;2024-01-27T13:06:22;1999.90;;;999.90;;
11767;SDS011;5941;57.652;12.514;2024-01-27T13:08:48;1999.90;;;999.90;;
11767;SDS011;5941;57.652;12.514;2024-01-27T13:11:15;1999.90;;;999.90;;
11767;SDS011;5941;57.652;12.514;2024-01-27T13:13:41;1999.90;;;999.90;;
11767;SDS011;5941;57.652;12.514;2024-01-27T13:16:07;1999.90;;;999.90;;
11767;SDS011;5941;57.652;12.514;2024-01-27T13:18:33;1999.90;;;999.90;;
11767;SDS011;5941;57.652;12.514;2024-01-27T13:20:59;1999.90;;;999.90;;
11767;SDS011;5941;57.652;12.514;2024-01-27T13:23:25;1999.90;;;999.90;;
11767;SDS011;5941;57.652;12.514;2024-01-27T13:25:51;1999.90;;;999.90;;
11767;SDS011;5941;57.652;12.514;2024-01-27T13:28:17;1999.90;;;999.90;;
11767;SDS011;5941;57.652;12.514;2024-01-27T13:30:43;1999.90;;;999.90;;
11767;SDS011;5941;57.652;12.514;2024-01-27T13:33:09;1999.90;;;999.90;;
11767;SDS011;5941;57.652;12.514;2024-01-27T13:35:36;1999.90;;;999.90;;
11767;SDS011;5941;57.652;12.514;2024-01-27T13:38:04;1999.90;;;999.90;;
11767;SDS011;5941;57.652;12.514;2024-01-27T13:40:30;1999.90;;;999.90;;
11767;SDS011;5941;57.652;12.514;2024-01-27T13:42:56;1999.90;;;999.90;;
11767;SDS011;5941;57.652;12.514;2024-01-27T13:45:23;1999.90;;;999.90;;
11767;SDS011;5941;57.652;12.514;2024-01-27T13:47:49;1999.90;;;999.90;;
11767;SDS011;5941;57.652;12.514;2024-01-27T13:50:15;1999.90;;;999.90;;